Time;durP1;ratioP1;P1;durP2;ratioP2;P2;SDS_P1;SDS_P2;PMS_P1;PMS_P2;Temp;Humidity;BMP_temperature;BMP_pressure;BME280_temperature;BME280_humidity;BME280_pressure;Samples;Min_cycle;Max_cycle;Signal;HPM_P1;HPM_P2
2022/05/05 00:00:53;;;;;;;17.10;11.17;;;;;;;9.90;100.00;96350.03;5015466;28;20042;-79
2022/05/05 00:03:20;;;;;;;11.67;10.03;;;;;;;9.86;100.00;96353.94;5009588;28;20036;-79
2022/05/05 00:05:45;;;;;;;13.47;10.87;;;;;;;9.83;100.00;96353.41;5018699;28;20033;-79
2022/05/05 00:08:11;;;;;;;12.50;10.50;;;;;;;9.85;100.00;96356.69;5017433;28;20025;-80
2022/05/05 00:16:07;;;;;;;13.47;11.30;;;;;;;9.90;100.00;96351.81;5032317;28;20128;-78
2022/05/05 00:18:33;;;;;;;14.67;11.67;;;;;;;9.86;100.00;96348.69;5027251;28;20072;-79
2022/05/05 00:20:58;;;;;;;13.40;11.57;;;;;;;9.92;100.00;96355.09;5027944;28;20022;-79
2022/05/05 00:23:24;;;;;;;17.93;13.80;;;;;;;9.85;100.00;96354.06;5039896;28;20093;-79
2022/05/05 00:25:50;;;;;;;17.20;13.20;;;;;;;9.82;100.00;96346.50;5018107;28;20065;-79
2022/05/05 00:28:16;;;;;;;14.50;12.57;;;;;;;9.75;100.00;96350.69;5034074;28;20071;-79
2022/05/05 00:30:44;;;;;;;13.10;11.70;;;;;;;9.71;100.00;96346.72;5016104;28;20041;-79
2022/05/05 00:33:10;;;;;;;14.07;11.87;;;;;;;9.72;100.00;96341.31;5004910;28;20695;-79
2022/05/05 00:35:36;;;;;;;14.37;11.17;;;;;;;9.57;100.00;96343.66;5010445;28;20029;-79
2022/05/05 00:38:03;;;;;;;14.63;11.67;;;;;;;9.49;100.00;96342.75;5023008;28;20099;-79
2022/05/05 00:40:29;;;;;;;14.10;12.43;;;;;;;9.41;100.00;96330.38;5017603;28;20049;-80
2022/05/05 00:42:57;;;;;;;13.67;11.57;;;;;;;9.41;100.00;96328.56;5015780;28;20057;-79
2022/05/05 00:45:23;;;;;;;14.23;12.30;;;;;;;9.44;100.00;96336.16;5022369;28;20122;-79
2022/05/05 00:47:49;;;;;;;13.83;11.73;;;;;;;9.42;100.00;96334.66;5018632;28;20037;-79
2022/05/05 00:50:16;;;;;;;14.90;12.73;;;;;;;9.30;100.00;96335.84;5026529;28;20108;-79
2022/05/05 00:52:42;;;;;;;17.70;12.40;;;;;;;9.29;100.00;96339.44;5012003;28;20049;-80
2022/05/05 00:55:08;;;;;;;14.90;12.67;;;;;;;9.32;100.00;96331.25;4998062;28;20100;-79
2022/05/05 00:57:36;;;;;;;16.43;13.43;;;;;;;9.26;100.00;96339.75;5026551;28;20049;-79
2022/05/05 01:00:03;;;;;;;15.97;13.50;;;;;;;9.31;100.00;96329.63;5014947;28;20116;-79
2022/05/05 01:02:28;;;;;;;14.87;13.17;;;;;;;9.09;100.00;96334.34;5019136;28;20995;-79
2022/05/05 01:04:56;;;;;;;15.27;12.87;;;;;;;8.99;100.00;96333.56;5021081;28;20105;-79
2022/05/05 01:07:23;;;;;;;14.83;13.00;;;;;;;9.06;100.00;96334.63;5020414;28;20096;-79
2022/05/05 01:09:50;;;;;;;14.47;12.63;;;;;;;9.07;100.00;96341.50;5008245;28;20042;-80
2022/05/05 01:12:15;;;;;;;16.13;12.70;;;;;;;9.04;100.00;96335.75;5016506;28;20042;-79
2022/05/05 01:14:41;;;;;;;17.97;13.17;;;;;;;8.97;100.00;96338.13;5027000;28;20041;-79
2022/05/05 01:17:07;;;;;;;17.77;12.90;;;;;;;8.91;100.00;96336.06;5033891;28;20128;-79
2022/05/05 01:19:35;;;;;;;15.93;13.47;;;;;;;8.87;100.00;96338.16;5029819;28;20038;-78
2022/05/05 01:22:00;;;;;;;16.67;13.70;;;;;;;8.89;100.00;96338.03;5014359;28;20037;-79
2022/05/05 01:29:55;;;;;;;14.13;11.87;;;;;;;8.83;100.00;96336.00;5027688;28;20042;-80
2022/05/05 01:32:21;;;;;;;14.70;12.03;;;;;;;8.83;100.00;96338.63;5018802;28;20029;-80
2022/05/05 01:34:47;;;;;;;14.77;12.70;;;;;;;8.81;100.00;96336.13;5025963;28;20040;-80
2022/05/05 01:37:13;;;;;;;14.63;11.73;;;;;;;8.73;100.00;96339.47;5011789;28;20034;-80
2022/05/05 01:39:39;;;;;;;14.27;12.30;;;;;;;8.60;100.00;96338.97;5031854;28;20061;-80
2022/05/05 01:42:05;;;;;;;14.07;11.90;;;;;;;8.61;100.00;96345.06;5039308;28;20033;-80
2022/05/05 01:44:31;;;;;;;13.10;10.67;;;;;;;8.54;100.00;96357.91;5012468;28;20060;-80
2022/05/05 01:46:57;;;;;;;15.40;11.07;;;;;;;8.53;100.00;96356.25;5015298;28;20045;-80
2022/05/05 01:49:22;;;;;;;14.60;12.07;;;;;;;8.46;100.00;96363.06;5006182;28;20124;-80
2022/05/05 01:51:48;;;;;;;13.70;11.10;;;;;;;8.46;100.00;96363.06;5015299;28;20044;-80
2022/05/05 01:54:14;;;;;;;13.73;10.90;;;;;;;8.55;100.00;96362.19;5021138;28;20029;-80
2022/05/05 01:56:40;;;;;;;12.37;9.90;;;;;;;8.51;100.00;96360.81;5013934;28;20021;-80
2022/05/05 01:59:06;;;;;;;14.43;11.27;;;;;;;8.55;100.00;96362.19;5024453;28;20133;-80
2022/05/05 02:01:33;;;;;;;12.30;10.23;;;;;;;8.50;100.00;96356.53;5024378;28;20128;-80
2022/05/05 02:04:00;;;;;;;13.63;10.90;;;;;;;8.47;100.00;96372.56;5019985;28;20036;-80
2022/05/05 02:06:27;;;;;;;11.70;10.47;;;;;;;8.48;100.00;96372.44;5021342;28;20022;-80
2022/05/05 02:08:52;;;;;;;12.53;10.73;;;;;;;8.53;100.00;96363.31;5028356;28;20071;-80
2022/05/05 02:11:18;;;;;;;12.47;10.73;;;;;;;8.53;100.00;96373.78;5007755;28;20042;-80
2022/05/05 02:13:44;;;;;;;11.80;9.90;;;;;;;8.48;100.00;96368.97;5033541;28;20052;-80
2022/05/05 02:16:11;;;;;;;16.77;11.03;;;;;;;8.43;100.00;96371.19;5038401;28;20033;-80
2022/05/05 02:18:37;;;;;;;12.07;10.00;;;;;;;8.50;100.00;96365.22;5026845;28;20029;-80
2022/05/05 02:21:02;;;;;;;13.07;10.77;;;;;;;8.53;100.00;96366.75;5024548;28;20033;-80
2022/05/05 02:23:28;;;;;;;14.17;11.27;;;;;;;8.50;100.00;96367.84;5010968;28;20034;-80
2022/05/05 02:25:54;;;;;;;13.33;11.07;;;;;;;8.55;100.00;96364.81;5023107;28;20033;-80
2022/05/05 02:28:19;;;;;;;13.43;11.80;;;;;;;8.50;100.00;96380.97;5021729;28;20038;-80
2022/05/05 02:30:45;;;;;;;15.77;12.93;;;;;;;8.47;100.00;96373.38;5010218;28;20045;-80
2022/05/05 02:33:11;;;;;;;16.30;12.60;;;;;;;8.46;100.00;96374.34;5014863;28;20072;-80
2022/05/05 02:35:37;;;;;;;15.40;12.17;;;;;;;8.43;100.00;96374.63;5017855;28;20033;-80
2022/05/05 02:40:48;;;;;;;15.73;13.40;;;;;;;8.33;100.00;96372.97;5029296;28;20041;-80
2022/05/05 02:43:13;;;;;;;13.77;12.23;;;;;;;8.32;100.00;96368.72;5018723;28;20081;-79
2022/05/05 02:45:40;;;;;;;15.80;13.77;;;;;;;8.37;100.00;96358.63;5038054;28;20024;-80
2022/05/05 02:48:06;;;;;;;18.47;13.87;;;;;;;8.26;100.00;96362.25;5024191;28;20044;-79
2022/05/05 02:50:32;;;;;;;14.53;12.40;;;;;;;8.24;100.00;96365.00;5030209;28;20036;-80
2022/05/05 02:52:58;;;;;;;14.80;12.33;;;;;;;8.23;100.00;96362.53;5011965;28;20033;-80
2022/05/05 02:55:24;;;;;;;17.23;13.03;;;;;;;8.16;100.00;96362.25;5031360;28;20478;-79
2022/05/05 02:57:50;;;;;;;14.17;12.37;;;;;;;8.14;100.00;96361.56;5026182;28;20041;-80
2022/05/05 03:00:16;;;;;;;15.30;12.47;;;;;;;8.17;100.00;96363.91;5026250;28;20137;-80
2022/05/05 03:02:44;;;;;;;16.37;14.03;;;;;;;8.09;100.00;96366.41;5016987;28;20029;-79
2022/05/05 03:05:13;;;;;;;17.37;14.33;;;;;;;8.10;100.00;96362.81;5030686;28;20040;-79
2022/05/05 03:07:39;;;;;;;16.30;13.93;;;;;;;8.13;100.00;96357.31;5035264;28;20017;-79
2022/05/05 03:10:05;;;;;;;18.53;13.50;;;;;;;8.08;100.00;96358.69;5040020;28;20068;-79
2022/05/05 03:12:31;;;;;;;16.93;13.80;;;;;;;8.03;100.00;96359.13;5007693;28;20045;-78
2022/05/05 03:14:57;;;;;;;14.77;12.77;;;;;;;7.98;100.00;96363.94;5024335;28;20098;-77
2022/05/05 03:17:23;;;;;;;16.87;12.73;;;;;;;8.13;100.00;96359.09;5040057;28;20033;-76
2022/05/05 03:19:48;;;;;;;18.10;13.90;;;;;;;8.04;100.00;96353.72;5032994;28;20065;-78
2022/05/05 03:22:14;;;;;;;17.97;13.17;;;;;;;7.99;100.00;96360.38;5008239;28;20037;-78
2022/05/05 03:24:40;;;;;;;17.37;12.90;;;;;;;7.95;100.00;96364.25;5030917;28;20533;-78
2022/05/05 03:27:06;;;;;;;17.43;13.93;;;;;;;7.93;100.00;96368.78;5033781;28;20037;-79
2022/05/05 03:29:32;;;;;;;17.53;14.27;;;;;;;7.89;100.00;96368.22;5033449;28;20029;-79
2022/05/05 03:31:58;;;;;;;20.17;14.13;;;;;;;7.91;100.00;96363.66;5022910;28;20037;-78
2022/05/05 03:34:23;;;;;;;16.97;14.13;;;;;;;7.93;100.00;96371.41;5034533;28;20420;-79
2022/05/05 03:36:49;;;;;;;17.50;14.40;;;;;;;7.94;100.00;96373.84;5023163;28;20085;-78
2022/05/05 03:39:15;;;;;;;16.37;14.67;;;;;;;7.91;100.00;96373.31;5027538;28;20025;-79
2022/05/05 03:41:41;;;;;;;16.43;13.80;;;;;;;7.78;100.00;96374.44;5027168;28;20052;-78
2022/05/05 03:44:07;;;;;;;19.27;13.87;;;;;;;7.76;100.00;96371.13;5026879;28;20105;-81
2022/05/05 03:46:33;;;;;;;17.17;13.43;;;;;;;7.66;100.00;96370.31;5028621;28;20055;-78
2022/05/05 03:48:59;;;;;;;14.80;12.23;;;;;;;7.70;100.00;96369.06;5008122;28;20049;-78
2022/05/05 03:51:25;;;;;;;18.10;13.57;;;;;;;7.54;100.00;96371.38;5031282;28;20808;-79
2022/05/05 03:53:52;;;;;;;17.13;12.93;;;;;;;7.52;100.00;96373.34;5025122;28;20033;-79
2022/05/05 03:56:17;;;;;;;16.23;13.10;;;;;;;7.56;100.00;96387.78;5002257;28;20495;-77
2022/05/05 03:58:43;;;;;;;20.83;13.83;;;;;;;7.66;100.00;96388.63;5026040;28;20037;-79
2022/05/05 04:01:09;;;;;;;19.77;13.63;;;;;;;7.64;100.00;96387.09;5025666;28;20442;-78
2022/05/05 04:03:36;;;;;;;19.07;13.20;;;;;;;7.62;100.00;96392.47;5013345;28;20025;-78
2022/05/05 04:06:06;;;;;;;15.37;13.10;;;;;;;7.69;100.00;96401.44;5026614;28;20022;-78
2022/05/05 04:08:33;;;;;;;18.93;13.40;;;;;;;7.78;100.00;96391.94;5026227;28;20108;-79
2022/05/05 04:10:59;;;;;;;16.13;12.80;;;;;;;7.76;100.00;96397.31;5019620;28;20033;-79
2022/05/05 04:13:27;;;;;;;16.33;13.83;;;;;;;7.75;100.00;96400.91;5023703;28;20037;-79
2022/05/05 04:15:53;;;;;;;14.83;12.73;;;;;;;7.77;100.00;96398.13;5005101;28;20072;-79
2022/05/05 04:18:19;;;;;;;18.77;13.90;;;;;;;7.82;100.00;96410.81;5028059;28;20018;-79
2022/05/05 04:20:47;;;;;;;17.90;13.50;;;;;;;7.89;100.00;96406.69;5026058;28;20125;-78
2022/05/05 04:23:13;;;;;;;18.00;13.33;;;;;;;7.93;100.00;96402.81;5016684;28;20113;-79
2022/05/05 04:25:43;;;;;;;14.80;12.47;;;;;;;7.92;100.00;96406.41;5024266;28;20033;-79
2022/05/05 04:28:10;;;;;;;14.57;12.27;;;;;;;7.94;100.00;96409.69;5030903;28;20033;-79
2022/05/05 04:30:37;;;;;;;17.43;13.77;;;;;;;7.94;100.00;96405.28;5025655;28;20506;-79
2022/05/05 04:33:03;;;;;;;15.60;13.10;;;;;;;7.78;100.00;96402.41;5009050;28;20040;-78
2022/05/05 04:35:30;;;;;;;18.93;12.83;;;;;;;7.80;100.00;96413.56;5028478;28;20092;-78
2022/05/05 04:37:56;;;;;;;15.83;12.30;;;;;;;7.85;100.00;96410.56;5026381;28;20678;-77
2022/05/05 04:40:22;;;;;;;15.13;12.90;;;;;;;7.87;100.00;96413.84;5018227;28;20044;-78
2022/05/05 04:42:48;;;;;;;15.80;13.30;;;;;;;7.90;100.00;96414.38;5021526;28;20033;-78
2022/05/05 04:45:13;;;;;;;17.10;13.30;;;;;;;7.90;100.00;96421.41;5000308;28;20048;-79
2022/05/05 04:47:39;;;;;;;23.57;14.87;;;;;;;7.98;100.00;96411.06;5037617;28;20048;-79
2022/05/05 04:50:06;;;;;;;15.47;13.60;;;;;;;7.94;100.00;96417.56;5023009;28;20076;-78
2022/05/05 04:52:33;;;;;;;14.13;11.77;;;;;;;7.91;100.00;96412.59;5028343;28;20033;-78
2022/05/05 04:54:59;;;;;;;15.07;12.30;;;;;;;7.93;100.00;96419.34;5022412;28;20140;-78
2022/05/05 04:57:25;;;;;;;16.20;12.57;;;;;;;8.05;100.00;96414.81;5024052;28;20123;-78
2022/05/05 04:59:52;;;;;;;18.87;14.83;;;;;;;8.14;100.00;96413.13;5027448;28;20077;-79
2022/05/05 05:02:17;;;;;;;21.37;17.20;;;;;;;8.14;100.00;96410.50;5027915;28;20034;-78
2022/05/05 05:04:43;;;;;;;20.07;14.97;;;;;;;8.39;100.00;96409.13;5025665;28;20117;-77
2022/05/05 05:07:09;;;;;;;17.90;14.00;;;;;;;8.57;100.00;96411.84;5026306;28;20568;-77
2022/05/05 05:09:34;;;;;;;16.60;13.80;;;;;;;8.75;100.00;96410.13;5034420;28;20101;-78
2022/05/05 05:12:01;;;;;;;17.73;14.17;;;;;;;8.93;100.00;96418.06;5014990;28;20048;-79
2022/05/05 05:14:27;;;;;;;16.10;13.63;;;;;;;9.07;100.00;96417.59;5032342;28;20052;-78
2022/05/05 05:16:53;;;;;;;15.60;13.67;;;;;;;8.96;100.00;96418.59;5022726;28;20041;-78
2022/05/05 05:19:20;;;;;;;15.03;12.77;;;;;;;9.05;100.00;96427.38;5012578;28;20092;-78
2022/05/05 05:21:46;;;;;;;16.20;13.77;;;;;;;9.09;100.00;96434.03;5030573;28;20048;-78
2022/05/05 05:24:12;;;;;;;18.40;14.03;;;;;;;9.12;100.00;96423.25;5016993;28;20034;-79
2022/05/05 05:26:38;;;;;;;17.70;13.67;;;;;;;9.18;100.00;96427.06;5023543;28;20036;-78
2022/05/05 05:29:03;;;;;;;17.00;13.70;;;;;;;9.16;100.00;96429.84;5030894;28;20034;-78
2022/05/05 05:31:29;;;;;;;18.33;15.23;;;;;;;9.48;100.00;96425.09;5027925;28;20041;-78
2022/05/05 05:33:55;;;;;;;16.43;13.47;;;;;;;9.80;100.00;96422.81;5031713;28;20056;-78
2022/05/05 05:36:21;;;;;;;16.43;14.43;;;;;;;10.04;100.00;96418.75;5033131;28;20034;-79
2022/05/05 05:38:46;;;;;;;17.70;13.50;;;;;;;10.37;100.00;96423.34;5017054;28;20390;-78
2022/05/05 05:41:12;;;;;;;14.67;12.73;;;;;;;10.68;100.00;96411.53;5027527;28;20083;-79
2022/05/05 05:43:39;;;;;;;16.70;13.73;;;;;;;10.91;100.00;96412.66;5023326;28;20034;-79
2022/05/05 05:46:04;;;;;;;16.97;13.97;;;;;;;11.15;100.00;96421.66;5037964;28;20033;-78
2022/05/05 05:48:31;;;;;;;18.03;15.70;;;;;;;11.16;100.00;96415.38;5025501;28;20398;-79
2022/05/05 05:50:56;;;;;;;16.37;14.63;;;;;;;11.72;100.00;96411.28;5026171;28;20049;-79
2022/05/05 05:53:23;;;;;;;24.57;15.30;;;;;;;11.92;100.00;96402.13;5027070;28;20041;-79
2022/05/05 05:55:49;;;;;;;16.10;14.40;;;;;;;12.19;100.00;96408.06;5045524;28;20182;-79
2022/05/05 05:58:14;;;;;;;13.40;11.43;;;;;;;11.23;100.00;96419.03;5026998;28;20072;-78
2022/05/05 06:00:40;;;;;;;13.70;11.50;;;;;;;10.94;100.00;96417.59;5031353;28;20474;-79
2022/05/05 06:05:51;;;;;;;18.53;16.20;;;;;;;11.13;100.00;96427.03;5027947;28;20030;-80
2022/05/05 06:08:18;;;;;;;19.63;17.23;;;;;;;11.16;100.00;96425.91;5024218;28;20041;-79
2022/05/05 06:10:43;;;;;;;19.50;17.10;;;;;;;11.15;100.00;96424.28;5028654;28;20068;-79
2022/05/05 06:13:09;;;;;;;18.10;15.80;;;;;;;11.29;100.00;96436.84;5027079;28;20402;-79
2022/05/05 06:15:35;;;;;;;21.03;17.10;;;;;;;11.25;100.00;96435.50;5010600;28;20101;-79
2022/05/05 06:18:01;;;;;;;18.47;16.30;;;;;;;11.01;100.00;96439.66;5025986;28;20100;-79
2022/05/05 06:20:27;;;;;;;18.47;16.47;;;;;;;11.22;100.00;96436.63;5023117;28;20044;-79
2022/05/05 06:22:53;;;;;;;18.60;16.47;;;;;;;11.26;100.00;96437.97;5028333;28;20045;-79
2022/05/05 06:25:23;;;;;;;19.50;15.97;;;;;;;11.25;100.00;96430.25;5018294;28;20033;-79
2022/05/05 06:27:49;;;;;;;20.30;18.10;;;;;;;11.32;100.00;96439.97;5019596;28;20037;-79
2022/05/05 06:30:16;;;;;;;18.70;16.73;;;;;;;11.48;100.00;96439.22;5027344;28;20104;-79
2022/05/05 06:32:43;;;;;;;19.67;17.43;;;;;;;11.41;100.00;96450.56;5030238;28;20029;-79
2022/05/05 06:35:10;;;;;;;20.80;17.90;;;;;;;11.45;100.00;96444.78;5029257;28;20049;-79
2022/05/05 06:37:36;;;;;;;21.23;18.83;;;;;;;11.47;100.00;96450.75;5028979;28;20068;-79
2022/05/05 06:40:03;;;;;;;19.87;17.13;;;;;;;11.46;100.00;96456.97;5034232;28;20061;-78
2022/05/05 06:42:29;;;;;;;19.77;16.77;;;;;;;11.60;100.00;96449.44;5026679;28;20045;-79
2022/05/05 06:44:55;;;;;;;20.27;17.70;;;;;;;11.53;100.00;96452.72;5022416;28;20041;-79
2022/05/05 06:47:21;;;;;;;20.73;18.07;;;;;;;11.56;100.00;96452.41;5027637;28;20038;-79
2022/05/05 06:49:47;;;;;;;21.20;18.87;;;;;;;11.70;100.00;96455.41;5029730;28;20080;-80
2022/05/05 06:52:13;;;;;;;20.60;17.67;;;;;;;11.70;100.00;96452.75;5023178;28;20103;-80
2022/05/05 06:54:39;;;;;;;20.10;18.00;;;;;;;11.79;100.00;96457.06;5034360;28;20088;-80
2022/05/05 06:57:05;;;;;;;20.97;18.67;;;;;;;11.73;100.00;96455.06;5018531;28;20029;-79
2022/05/05 06:59:31;;;;;;;20.87;17.83;;;;;;;11.76;100.00;96454.75;5018356;28;20040;-80
2022/05/05 07:02:07;;;;;;;21.03;18.03;;;;;;;11.75;100.00;96464.47;5018520;28;20037;-80
2022/05/05 07:07:19;;;;;;;21.17;17.30;;;;;;;11.74;100.00;96462.84;5018694;28;20646;-80
2022/05/05 07:12:32;;;;;;;17.90;15.80;;;;;;;11.73;100.00;96474.34;5024843;28;20036;-81
2022/05/05 07:14:58;;;;;;;19.40;16.87;;;;;;;11.91;100.00;96484.00;5019511;28;20061;-80
2022/05/05 07:17:25;;;;;;;18.10;16.03;;;;;;;11.92;100.00;96481.19;5026200;28;20063;-80
2022/05/05 07:19:52;;;;;;;19.10;16.07;;;;;;;12.14;100.00;96478.91;5024166;28;20044;-81
2022/05/05 07:22:18;;;;;;;17.40;15.53;;;;;;;12.00;100.00;96488.28;5016292;28;20029;-80
2022/05/05 07:24:46;;;;;;;21.57;16.90;;;;;;;11.99;100.00;96492.72;5015078;28;20057;-80
2022/05/05 07:27:12;;;;;;;22.50;16.23;;;;;;;12.00;100.00;96488.28;5031653;28;20022;-81
2022/05/05 07:29:39;;;;;;;41.53;17.27;;;;;;;11.95;100.00;96496.69;5036708;28;20033;-80
2022/05/05 07:32:05;;;;;;;17.33;15.23;;;;;;;11.92;100.00;96497.00;5031574;28;20022;-80
2022/05/05 07:34:31;;;;;;;17.60;15.23;;;;;;;11.93;100.00;96497.81;5007343;28;20046;-80
2022/05/05 07:36:56;;;;;;;19.40;15.33;;;;;;;11.92;100.00;96501.44;5011163;28;20388;-81
2022/05/05 07:39:25;;;;;;;17.53;15.63;;;;;;;11.90;100.00;96506.03;5009821;28;20111;-80
2022/05/05 07:41:51;;;;;;;18.73;16.77;;;;;;;11.94;100.00;96502.94;5022464;28;20458;-80
2022/05/05 07:44:16;;;;;;;20.97;16.87;;;;;;;12.01;100.00;96505.75;5038849;28;20045;-81
2022/05/05 07:46:42;;;;;;;18.83;16.40;;;;;;;12.10;100.00;96499.50;5006344;28;20104;-80
2022/05/05 07:49:08;;;;;;;20.00;16.47;;;;;;;12.11;100.00;96510.88;5027023;28;20064;-81
2022/05/05 07:51:35;;;;;;;22.53;17.13;;;;;;;12.06;100.00;96508.72;5025851;28;20033;-81
2022/05/05 07:56:45;;;;;;;20.57;16.03;;;;;;;12.25;100.00;96518.16;5024395;28;20057;-80
2022/05/05 07:59:12;;;;;;;19.23;15.67;;;;;;;12.33;100.00;96512.06;5015914;28;20029;-81
2022/05/05 08:01:38;;;;;;;19.97;16.87;;;;;;;12.73;100.00;96500.69;5028023;28;20461;-80
2022/05/05 08:04:04;;;;;;;20.87;17.87;;;;;;;12.80;100.00;96496.41;5032674;28;20040;-79
2022/05/05 08:06:31;;;;;;;20.10;17.33;;;;;;;12.58;100.00;96497.91;5046047;28;20084;-80
2022/05/05 08:08:57;;;;;;;21.03;18.77;;;;;;;13.08;100.00;96494.22;5035740;28;20041;-80
2022/05/05 08:11:22;;;;;;;20.90;17.70;;;;;;;13.41;100.00;96496.78;5020562;28;20030;-81
2022/05/05 08:13:49;;;;;;;22.27;19.13;;;;;;;13.68;100.00;96506.09;5027798;28;20041;-81
2022/05/05 08:16:16;;;;;;;21.73;19.43;;;;;;;13.87;100.00;96495.09;5036284;28;20026;-81
2022/05/05 08:18:42;;;;;;;22.33;19.93;;;;;;;14.10;100.00;96497.78;5027492;28;20029;-79
2022/05/05 08:21:11;;;;;;;25.07;20.20;;;;;;;14.14;100.00;96498.25;5032466;28;20073;-81
2022/05/05 08:23:38;;;;;;;22.97;20.20;;;;;;;14.43;100.00;96504.69;5026034;28;20044;-81
2022/05/05 08:28:50;;;;;;;26.37;23.30;;;;;;;15.11;100.00;96498.50;5033460;28;20045;-80
2022/05/05 08:31:16;;;;;;;22.33;19.93;;;;;;;15.38;100.00;96502.34;5026034;28;20033;-80
2022/05/05 08:33:43;;;;;;;32.07;23.20;;;;;;;15.39;100.00;96498.72;5036022;28;20053;-81
2022/05/05 08:36:09;;;;;;;25.15;22.52;;;;;;;16.31;100.00;96495.56;5027429;28;20433;-81
2022/05/05 08:38:34;;;;;;;24.83;21.75;;;;;;;17.30;100.00;96494.75;5009387;28;20120;-79
2022/05/05 08:41:01;;;;;;;24.65;21.70;;;;;;;16.91;100.00;96506.75;5011792;28;20096;-80
2022/05/05 08:43:27;;;;;;;24.30;21.73;;;;;;;17.05;100.00;96505.84;5035159;28;20044;-80
2022/05/05 08:45:55;;;;;;;23.27;20.10;;;;;;;16.92;100.00;96514.53;5030536;28;20108;-79
2022/05/05 08:48:21;;;;;;;22.27;19.80;;;;;;;16.98;97.23;96518.25;5035031;28;20064;-80
2022/05/05 08:50:55;;;;;;;23.50;21.00;;;;;;;18.27;91.36;96513.25;5025806;28;20202;-80
2022/05/05 08:53:25;;;;;;;19.63;17.08;;;;;;;18.04;88.02;96510.09;5028680;28;20048;-80
2022/05/05 08:55:51;;;;;;;18.95;16.95;;;;;;;18.45;83.02;96507.38;5019555;28;20260;-80
2022/05/05 08:58:16;;;;;;;18.10;15.98;;;;;;;19.26;75.93;96511.72;5041558;28;20017;-80
2022/05/05 09:00:43;;;;;;;20.70;15.63;;;;;;;18.96;75.40;96504.16;5042483;28;20029;-80
2022/05/05 09:03:10;;;;;;;18.13;15.88;;;;;;;20.06;73.09;96506.22;5025584;28;20620;-80
2022/05/05 09:05:45;;;;;;;21.67;17.95;;;;;;;18.91;79.09;96509.25;5022633;28;20057;-80
2022/05/05 09:08:27;;;;;;;18.33;15.75;;;;;;;17.97;83.09;96514.56;5043544;28;20053;-81
2022/05/05 09:10:58;;;;;;;16.83;13.55;;;;;;;18.10;83.26;96514.63;5043328;28;20106;-79
2022/05/05 09:13:29;;;;;;;16.80;12.88;;;;;;;18.35;82.19;96518.41;5037370;28;20036;-81
2022/05/05 09:15:55;;;;;;;15.20;13.63;;;;;;;18.00;83.88;96525.63;5040017;28;20036;-80
2022/05/05 09:18:22;;;;;;;15.15;13.45;;;;;;;17.85;81.52;96524.97;5020008;28;20029;-80
2022/05/05 09:20:49;;;;;;;15.45;13.85;;;;;;;17.74;79.03;96522.81;5044390;28;20033;-79
2022/05/05 09:24:34;;;;;;;16.25;13.63;;;;;;;17.64;83.28;96521.38;5046375;28;20101;-81
2022/05/05 09:26:28;;;;;;;14.30;11.95;;;;;;;17.93;84.29;96526.63;5048121;28;20040;-80
2022/05/05 09:28:54;;;;;;;14.75;12.50;;;;;;;18.07;79.10;96526.47;5029668;28;20034;-81
2022/05/05 09:31:23;;;;;;;14.05;12.52;;;;;;;18.83;79.59;96520.97;5043126;28;20076;-80
2022/05/05 09:33:50;;;;;;;13.95;12.45;;;;;;;18.54;76.25;96519.47;5045725;28;20037;-80
2022/05/05 09:36:25;;;;;;;12.07;10.77;;;;;;;18.25;72.13;96514.47;5041665;28;20046;-81
2022/05/05 09:39:00;;;;;;;11.55;9.63;;;;;;;18.78;70.38;96512.78;5047532;28;20037;-81
2022/05/05 09:41:34;;;;;;;11.27;10.07;;;;;;;18.56;74.03;96522.75;5037904;28;20394;-79
2022/05/05 09:44:12;;;;;;;13.20;10.15;;;;;;;18.11;74.76;96509.13;5036905;28;20057;-81
2022/05/05 09:46:40;;;;;;;11.63;9.18;;;;;;;18.16;71.22;96513.00;5034242;28;20021;-82
2022/05/05 09:49:13;;;;;;;9.73;8.73;;;;;;;18.96;70.37;96512.16;5049358;28;20026;-81
2022/05/05 09:51:46;;;;;;;13.15;10.65;;;;;;;18.55;70.73;96515.78;5037186;28;20042;-81
2022/05/05 09:59:49;;;;;;;11.02;9.15;;;;;;;18.09;74.02;96528.97;5028222;28;20033;-80
2022/05/05 10:05:15;;;;;;;14.07;9.75;;;;;;;18.04;77.95;96523.41;5038985;28;20113;-80
2022/05/05 10:07:44;;;;;;;11.82;9.75;;;;;;;17.88;75.22;96520.06;5027554;28;20069;-84
2022/05/05 10:10:11;;;;;;;11.63;9.82;;;;;;;17.92;78.09;96525.00;5024295;28;20042;-80
2022/05/05 10:12:39;;;;;;;10.90;9.75;;;;;;;17.90;77.41;96523.34;5029052;28;20091;-85
2022/05/05 10:15:06;;;;;;;12.50;10.75;;;;;;;18.26;79.21;96527.56;5028728;28;20033;-84
2022/05/05 10:17:34;;;;;;;12.55;10.43;;;;;;;18.08;79.52;96530.00;5011793;28;20155;-84
2022/05/05 10:20:00;;;;;;;13.02;10.20;;;;;;;18.54;75.02;96524.81;5036896;28;20378;-83
2022/05/05 10:22:36;;;;;;;12.80;10.95;;;;;;;18.82;73.79;96523.84;5033119;28;20525;-84
2022/05/05 10:25:13;;;;;;;11.25;9.70;;;;;;;19.13;69.34;96522.41;5040947;28;20676;-85
2022/05/05 10:27:44;;;;;;;11.68;9.88;;;;;;;19.27;68.77;96518.69;5026503;28;20033;-83
2022/05/05 10:30:17;;;;;;;12.65;10.50;;;;;;;19.66;66.86;96519.69;5044630;28;20036;-84
2022/05/05 10:32:43;;;;;;;11.27;10.10;;;;;;;19.19;65.24;96517.06;5028739;28;20025;-84
2022/05/05 10:35:12;;;;;;;10.63;9.10;;;;;;;19.75;62.20;96515.75;5040754;28;20041;-83
2022/05/05 10:37:39;;;;;;;11.60;10.25;;;;;;;19.14;68.14;96518.69;5037041;28;20038;-80
2022/05/05 10:40:09;;;;;;;12.02;9.45;;;;;;;19.01;67.69;96516.84;5020804;28;20041;-81
2022/05/05 10:42:39;;;;;;;10.82;8.93;;;;;;;19.43;66.48;96512.94;5025653;28;20107;-81
2022/05/05 10:45:24;;;;;;;11.65;9.95;;;;;;;19.04;66.50;96509.25;5014867;28;20029;-81
2022/05/05 10:47:51;;;;;;;10.63;9.52;;;;;;;19.03;67.47;96504.97;5024162;28;20042;-81
2022/05/05 10:50:38;;;;;;;12.48;8.85;;;;;;;19.27;66.24;96508.84;5017649;28;20124;-81
2022/05/05 10:53:06;;;;;;;12.23;9.18;;;;;;;19.24;67.68;96511.91;5021799;28;20097;-81
2022/05/05 10:55:40;;;;;;;13.57;9.40;;;;;;;19.14;66.74;96513.38;5033233;28;20025;-82
2022/05/05 10:58:09;;;;;;;12.48;9.38;;;;;;;19.17;65.87;96507.63;5022761;28;20120;-81
2022/05/05 11:00:42;;;;;;;10.27;8.60;;;;;;;19.10;68.41;96501.47;5026943;28;20538;-82
2022/05/05 11:03:15;;;;;;;11.30;8.90;;;;;;;20.03;64.35;96499.44;5016995;28;20064;-83
2022/05/05 11:05:40;;;;;;;;;;;;;;;19.66;64.57;96504.50;5009489;28;20033;-80
2022/05/05 11:08:09;;;;;;;9.88;8.88;;;;;;;19.73;63.59;96502.63;5019511;28;19918;-83
2022/05/05 11:10:45;;;;;;;11.52;9.45;;;;;;;19.74;64.27;96501.59;5030873;28;20108;-81
2022/05/05 11:13:35;;;;;;;12.98;10.45;;;;;;;19.77;65.62;96503.84;5021135;28;20034;-81
2022/05/05 11:22:12;;;;;;;15.27;12.88;;;;;;;19.66;69.87;96507.16;5021354;28;20034;-81
2022/05/05 11:24:47;;;;;;;14.73;12.65;;;;;;;19.39;71.10;96514.38;5009407;28;20029;-81
2022/05/05 11:27:23;;;;;;;15.30;13.38;;;;;;;19.35;72.56;96507.81;5012369;28;20988;-81
2022/05/05 11:29:57;;;;;;;15.00;12.88;;;;;;;19.36;70.79;96506.78;5009145;28;20021;-81
2022/05/05 11:32:32;;;;;;;14.32;12.93;;;;;;;19.31;72.92;96503.91;5022091;28;20132;-82
2022/05/05 11:34:59;;;;;;;16.33;14.27;;;;;;;19.13;73.58;96503.75;5022187;28;20109;-82
2022/05/05 11:37:29;;;;;;;15.50;13.93;;;;;;;18.97;77.22;96505.78;5016673;28;20065;-82
2022/05/05 11:39:56;;;;;;;17.75;15.70;;;;;;;18.53;79.27;96504.50;5012672;28;20038;-80
2022/05/05 11:42:22;;;;;;;21.10;16.10;;;;;;;18.45;79.60;96499.38;5036113;28;20030;-80
2022/05/05 11:44:48;;;;;;;16.88;14.98;;;;;;;19.40;80.11;96502.69;5015211;28;20060;-81
2022/05/05 11:47:19;;;;;;;14.38;12.88;;;;;;;19.00;76.01;96496.56;5035543;28;20037;-81
2022/05/05 11:49:56;;;;;;;16.10;14.40;;;;;;;18.78;79.87;96498.63;5039720;28;20014;-79
2022/05/05 11:52:24;;;;;;;17.73;15.68;;;;;;;18.36;83.61;96505.91;5036583;28;20041;-81
2022/05/05 11:54:52;;;;;;;21.30;16.73;;;;;;;18.37;83.99;96492.38;5030840;28;20411;-82
2022/05/05 11:57:39;;;;;;;19.13;16.55;;;;;;;18.41;83.89;96495.47;5038561;28;20060;-82
2022/05/05 12:02:53;;;;;;;15.82;14.23;;;;;;;18.66;81.46;96484.25;5016303;28;20041;-81